Time;durP1;ratioP1;P1;durP2;ratioP2;P2;SDS_P1;SDS_P2;PMS_P1;PMS_P2;Temp;Humidity;BMP_temperature;BMP_pressure;BME280_temperature;BME280_humidity;BME280_pressure;Samples;Min_cycle;Max_cycle;Signal;HPM_P1;HPM_P2
2022/05/01 00:01:39;;;;;;;11.13;5.07;;;6.20;90.00;;;;;;5101816;28;20085;-74
2022/05/01 00:04:05;;;;;;;12.20;5.10;;;6.10;90.00;;;;;;5087589;28;20031;-74
2022/05/01 00:06:33;;;;;;;14.43;5.45;;;6.10;90.30;;;;;;5112022;28;20531;-74
2022/05/01 00:09:00;;;;;;;12.23;5.82;;;6.00;90.50;;;;;;5105526;28;20023;-74
2022/05/01 00:11:26;;;;;;;12.13;5.80;;;5.90;90.70;;;;;;5102397;28;20055;-74
2022/05/01 00:13:51;;;;;;;10.90;6.18;;;5.80;90.80;;;;;;5108366;28;20039;-74
2022/05/01 00:16:17;;;;;;;10.48;6.78;;;5.80;91.10;;;;;;5092155;28;20036;-74
2022/05/01 00:18:44;;;;;;;16.10;6.88;;;5.80;91.20;;;;;;5111719;28;20404;-74
2022/05/01 00:21:10;;;;;;;11.18;6.28;;;5.80;91.40;;;;;;5106218;28;20024;-74
2022/05/01 00:23:35;;;;;;;10.48;5.72;;;5.70;91.40;;;;;;5107535;28;21889;-74
2022/05/01 00:26:04;;;;;;;12.45;6.00;;;5.60;91.40;;;;;;5105671;28;20108;-74
2022/05/01 00:28:32;;;;;;;12.07;5.95;;;5.60;91.30;;;;;;5110577;28;20024;-74
2022/05/01 00:30:57;;;;;;;13.63;5.97;;;5.50;91.20;;;;;;5098388;28;20452;-74
2022/05/01 00:38:53;;;;;;;11.32;6.35;;;5.20;90.90;;;;;;5099914;28;20170;-74
2022/05/01 00:41:21;;;;;;;11.98;6.30;;;5.20;90.80;;;;;;5086686;28;20040;-74
2022/05/01 00:44:11;;;;;;;15.82;6.45;;;5.30;91.00;;;;;;5107168;28;20036;-74
2022/05/01 00:46:42;;;;;;;12.70;6.20;;;5.30;91.20;;;;;;5108855;28;20028;-74
2022/05/01 00:49:23;;;;;;;18.00;6.60;;;5.20;91.50;;;;;;5108419;28;20058;-74
2022/05/01 00:51:57;;;;;;;8.43;4.85;;;5.30;91.90;;;;;;5107436;28;20336;-74
2022/05/01 00:54:25;;;;;;;18.42;6.85;;;5.30;92.00;;;;;;5107824;28;20031;-74
2022/05/01 00:56:53;;;;;;;17.27;7.57;;;5.40;92.20;;;;;;5110478;28;20031;-74
2022/05/01 00:59:19;;;;;;;19.73;6.80;;;5.40;92.40;;;;;;5112073;28;20031;-74
2022/05/01 01:01:47;;;;;;;19.65;7.38;;;5.40;92.50;;;;;;5104865;28;20427;-74
2022/05/01 01:04:13;;;;;;;22.50;8.45;;;5.50;92.70;;;;;;5100747;28;20032;-74
2022/05/01 01:06:40;;;;;;;19.33;7.97;;;5.50;92.90;;;;;;5089908;28;20450;-74
2022/05/01 01:09:06;;;;;;;13.30;7.97;;;5.50;92.90;;;;;;5112110;28;20027;-74
2022/05/01 01:11:32;;;;;;;18.55;8.15;;;5.40;92.80;;;;;;5100149;28;20501;-74
2022/05/01 01:14:03;;;;;;;16.13;8.23;;;5.30;92.80;;;;;;5110500;28;20036;-74
2022/05/01 01:16:29;;;;;;;13.13;7.78;;;5.30;92.90;;;;;;5108938;28;20356;-74
2022/05/01 01:18:55;;;;;;;19.48;8.50;;;5.20;92.80;;;;;;5111036;28;20471;-74
2022/05/01 01:21:21;;;;;;;16.83;7.85;;;5.20;93.00;;;;;;5107446;28;20031;-74
2022/05/01 01:23:47;;;;;;;18.98;8.10;;;5.10;92.90;;;;;;5111278;28;20397;-74
2022/05/01 01:26:13;;;;;;;18.25;7.90;;;5.10;92.90;;;;;;5102719;28;20036;-74
2022/05/01 01:28:41;;;;;;;13.00;8.52;;;5.10;93.00;;;;;;5105328;28;20077;-74
2022/05/01 01:33:59;;;;;;;17.52;8.85;;;5.10;93.20;;;;;;5104511;28;20031;-74
2022/05/01 01:36:28;;;;;;;19.70;10.93;;;5.30;93.30;;;;;;5106372;28;20137;-74
2022/05/01 01:38:54;;;;;;;16.70;9.95;;;5.30;93.40;;;;;;5103956;28;20027;-74
2022/05/01 01:41:26;;;;;;;17.73;10.10;;;5.40;93.40;;;;;;5107223;28;20047;-74
2022/05/01 01:43:53;;;;;;;23.45;10.02;;;5.50;93.40;;;;;;5103580;28;20019;-74
2022/05/01 01:46:18;;;;;;;21.05;10.95;;;5.60;93.40;;;;;;5105889;28;20449;-74
2022/05/01 01:48:47;;;;;;;15.80;9.95;;;5.60;93.40;;;;;;5109064;28;20027;-74
2022/05/01 01:51:13;;;;;;;24.10;11.13;;;5.70;93.40;;;;;;5107446;28;20028;-74
2022/05/01 01:53:39;;;;;;;24.83;8.88;;;5.70;93.30;;;;;;5104009;28;20039;-74
2022/05/01 01:56:09;;;;;;;18.73;9.55;;;5.80;93.30;;;;;;5102345;28;20435;-74
2022/05/01 01:58:35;;;;;;;19.45;10.20;;;5.80;93.30;;;;;;5100268;28;20027;-74
2022/05/01 02:01:03;;;;;;;17.23;9.27;;;5.90;93.20;;;;;;5098803;28;20067;-74
2022/05/01 02:03:29;;;;;;;22.33;9.40;;;6.00;93.20;;;;;;5100662;28;20035;-74
2022/05/01 02:05:54;;;;;;;16.38;8.80;;;6.10;93.20;;;;;;5108434;28;20495;-74
2022/05/01 02:08:20;;;;;;;17.90;8.50;;;6.10;92.90;;;;;;5101592;28;20095;-74
2022/05/01 02:10:48;;;;;;;13.88;8.30;;;6.10;93.00;;;;;;5106566;28;20394;-74
2022/05/01 02:13:15;;;;;;;14.48;8.68;;;6.10;92.70;;;;;;5101760;28;20114;-74
2022/05/01 02:15:41;;;;;;;16.80;8.48;;;6.20;92.70;;;;;;5104386;28;20043;-74
2022/05/01 02:18:06;;;;;;;20.42;8.32;;;6.20;92.70;;;;;;5108077;28;20028;-74
2022/05/01 02:21:34;;;;;;;13.65;9.27;;;6.20;92.60;;;;;;5102737;28;20150;-74
2022/05/01 02:23:21;;;;;;;17.25;8.13;;;6.30;92.70;;;;;;5102761;28;20067;-74
2022/05/01 02:25:47;;;;;;;17.38;7.70;;;6.30;92.70;;;;;;5108600;28;20031;-74
2022/05/01 02:28:13;;;;;;;15.93;8.40;;;6.40;92.60;;;;;;5106064;28;20039;-74
2022/05/01 02:30:39;;;;;;;14.30;7.70;;;6.30;92.50;;;;;;5106580;28;20085;-74
2022/05/01 02:33:07;;;;;;;14.00;7.95;;;6.30;92.40;;;;;;5106529;28;20027;-74
2022/05/01 02:35:34;;;;;;;15.63;8.02;;;6.30;92.30;;;;;;5099789;28;20059;-74
2022/05/01 02:38:01;;;;;;;12.35;7.78;;;6.30;92.30;;;;;;5106040;28;20023;-74
2022/05/01 02:40:29;;;;;;;12.20;7.40;;;6.30;92.30;;;;;;5111097;28;20027;-74
2022/05/01 02:42:56;;;;;;;18.85;9.27;;;6.20;92.40;;;;;;5108991;28;20027;-74
2022/05/01 02:45:22;;;;;;;18.23;7.40;;;6.20;92.40;;;;;;5097222;28;20032;-74
2022/05/01 02:47:47;;;;;;;14.60;8.18;;;6.20;92.40;;;;;;5100869;28;20047;-74
2022/05/01 02:50:13;;;;;;;15.63;8.70;;;6.30;92.50;;;;;;5111759;28;20386;-74
2022/05/01 02:52:38;;;;;;;14.70;7.40;;;6.20;92.40;;;;;;5107297;28;20028;-74
2022/05/01 02:55:04;;;;;;;14.82;7.70;;;6.30;92.50;;;;;;5109473;28;20031;-74
2022/05/01 02:57:30;;;;;;;16.77;9.10;;;6.30;92.50;;;;;;5103443;28;20031;-74
2022/05/01 02:59:55;;;;;;;14.70;7.30;;;6.30;92.50;;;;;;5103683;28;20440;-74
2022/05/01 03:02:21;;;;;;;11.88;7.28;;;6.30;92.50;;;;;;5090648;28;20044;-74
2022/05/01 03:04:47;;;;;;;11.20;6.68;;;6.30;92.40;;;;;;5105478;28;20032;-74
2022/05/01 03:07:13;;;;;;;11.63;7.65;;;6.40;92.50;;;;;;5105749;28;20044;-74
2022/05/01 03:09:38;;;;;;;10.02;7.18;;;6.20;92.30;;;;;;5098236;28;20031;-74
2022/05/01 03:12:05;;;;;;;14.15;7.13;;;6.20;92.40;;;;;;5096569;28;20028;-74
2022/05/01 03:14:31;;;;;;;12.07;7.65;;;6.20;92.30;;;;;;5108293;28;20039;-74
2022/05/01 03:16:57;;;;;;;13.15;7.35;;;6.30;92.50;;;;;;5100320;28;20086;-74
2022/05/01 03:22:13;;;;;;;13.45;7.60;;;6.40;92.30;;;;;;5102169;28;20544;-74
2022/05/01 03:24:39;;;;;;;11.45;6.68;;;6.40;92.30;;;;;;5110876;28;20024;-74
2022/05/01 03:27:06;;;;;;;14.10;7.28;;;6.50;92.10;;;;;;5107302;28;20031;-74
2022/05/01 03:29:32;;;;;;;12.75;7.20;;;6.50;91.90;;;;;;5102485;28;20035;-74
2022/05/01 03:31:59;;;;;;;13.75;6.75;;;6.40;91.90;;;;;;5101833;28;20553;-74
2022/05/01 03:34:26;;;;;;;10.30;7.43;;;6.40;91.90;;;;;;5107623;28;20032;-75
2022/05/01 03:36:53;;;;;;;13.75;6.97;;;6.30;92.00;;;;;;5103810;28;20506;-74
2022/05/01 03:39:19;;;;;;;24.42;8.25;;;6.40;92.20;;;;;;5086767;28;20406;-75
2022/05/01 03:41:45;;;;;;;12.00;7.07;;;6.40;92.00;;;;;;5110279;28;20051;-74
2022/05/01 03:44:11;;;;;;;13.10;7.80;;;6.40;92.00;;;;;;5101733;28;20028;-74
2022/05/01 03:46:38;;;;;;;17.80;6.63;;;6.40;92.00;;;;;;5107117;28;20046;-74
2022/05/01 03:49:05;;;;;;;13.15;7.28;;;6.30;92.20;;;;;;5105606;28;20428;-74
2022/05/01 03:51:31;;;;;;;16.80;7.60;;;6.40;92.30;;;;;;5106559;28;20032;-74
2022/05/01 03:54:02;;;;;;;13.00;6.88;;;6.30;92.20;;;;;;5103840;28;21902;-74
2022/05/01 03:56:31;;;;;;;16.20;6.30;;;6.20;92.10;;;;;;5112890;28;20031;-74
2022/05/01 03:58:57;;;;;;;16.35;6.90;;;6.10;92.10;;;;;;5112196;28;20474;-74
2022/05/01 04:01:24;;;;;;;10.93;6.78;;;6.10;92.00;;;;;;5107250;28;20050;-74
2022/05/01 04:03:49;;;;;;;13.43;7.03;;;6.10;92.10;;;;;;5105906;28;20035;-74
2022/05/01 04:06:15;;;;;;;19.25;8.65;;;6.00;92.00;;;;;;5113061;28;20081;-74
2022/05/01 04:08:41;;;;;;;14.43;8.43;;;6.00;92.20;;;;;;5104203;28;20112;-74
2022/05/01 04:11:07;;;;;;;14.88;8.23;;;5.90;92.20;;;;;;5089479;28;20386;-74
2022/05/01 04:13:33;;;;;;;18.42;8.93;;;5.80;92.40;;;;;;5105861;28;20031;-74
2022/05/01 04:15:58;;;;;;;16.75;8.60;;;5.80;92.70;;;;;;5110609;28;20570;-74
2022/05/01 04:18:25;;;;;;;16.27;8.05;;;5.80;92.80;;;;;;5107894;28;20532;-72
2022/05/01 04:20:52;;;;;;;17.50;8.95;;;5.90;92.90;;;;;;5101741;28;20036;-71
2022/05/01 04:23:18;;;;;;;16.27;9.07;;;5.90;93.00;;;;;;5109233;28;20024;-72
2022/05/01 04:25:44;;;;;;;14.25;8.07;;;5.90;92.80;;;;;;5107083;28;20023;-72
2022/05/01 04:28:11;;;;;;;20.00;8.18;;;5.90;92.70;;;;;;5106047;28;20081;-71
2022/05/01 04:30:39;;;;;;;11.68;7.80;;;6.00;92.60;;;;;;5112213;28;20034;-71
2022/05/01 04:33:06;;;;;;;15.32;7.90;;;6.00;92.50;;;;;;5109567;28;20020;-72
2022/05/01 04:35:42;;;;;;;14.32;7.88;;;6.10;92.50;;;;;;5108320;28;20036;-72
2022/05/01 04:38:23;;;;;;;15.50;8.45;;;6.10;92.30;;;;;;5109159;28;20451;-72
2022/05/01 04:40:55;;;;;;;12.57;8.00;;;6.20;92.30;;;;;;5111170;28;20055;-72
2022/05/01 04:43:23;;;;;;;16.90;7.88;;;6.20;92.30;;;;;;5106877;28;20151;-71
2022/05/01 04:45:56;;;;;;;16.70;8.05;;;6.30;92.40;;;;;;5107273;28;20178;-72
2022/05/01 04:48:23;;;;;;;14.57;8.73;;;6.40;92.30;;;;;;5104735;28;20047;-72
2022/05/01 04:50:49;;;;;;;10.45;7.30;;;6.50;92.20;;;;;;5112162;28;20031;-72
2022/05/01 04:53:17;;;;;;;13.98;7.07;;;6.60;92.00;;;;;;5103579;28;20024;-72
2022/05/01 04:55:44;;;;;;;15.05;7.95;;;6.70;91.90;;;;;;5110930;28;20027;-72
2022/05/01 04:58:11;;;;;;;11.98;7.43;;;6.80;91.70;;;;;;5101526;28;20035;-72
2022/05/01 05:00:37;;;;;;;12.50;7.28;;;6.90;91.80;;;;;;5106704;28;20028;-72
2022/05/01 05:03:04;;;;;;;15.40;7.68;;;7.10;91.70;;;;;;5105607;28;20040;-71
2022/05/01 05:05:31;;;;;;;23.23;7.82;;;7.10;91.40;;;;;;5110367;28;20027;-71
2022/05/01 05:09:53;;;;;;;14.93;7.68;;;7.10;91.20;;;;;;5107037;28;20478;-71
2022/05/01 05:10:47;;;;;;;15.35;7.80;;;7.20;91.20;;;;;;5110447;28;20493;-71
2022/05/01 05:13:14;;;;;;;10.85;7.38;;;7.40;91.20;;;;;;5107386;28;20063;-72
2022/05/01 05:15:40;;;;;;;10.43;7.60;;;7.50;90.70;;;;;;5107077;28;20360;-73
2022/05/01 05:18:06;;;;;;;16.13;8.02;;;7.50;90.80;;;;;;5100898;28;20042;-74
2022/05/01 05:20:31;;;;;;;14.13;6.88;;;7.60;90.60;;;;;;5110708;28;20032;-73
2022/05/01 05:22:57;;;;;;;13.20;7.32;;;7.60;90.30;;;;;;5106598;28;20376;-73
2022/05/01 05:25:22;;;;;;;13.90;7.30;;;7.60;90.30;;;;;;5108588;28;20040;-74
2022/05/01 05:27:48;;;;;;;14.93;7.32;;;7.70;90.20;;;;;;5102039;28;20444;-73
2022/05/01 05:30:14;;;;;;;14.07;6.70;;;7.70;90.00;;;;;;5105952;28;20044;-75
2022/05/01 05:32:39;;;;;;;10.52;6.82;;;7.60;89.80;;;;;;5107189;28;20596;-74
2022/05/01 05:35:06;;;;;;;11.38;7.13;;;7.60;89.90;;;;;;5106273;28;20036;-74
2022/05/01 05:37:32;;;;;;;16.45;7.15;;;7.50;89.90;;;;;;5097175;28;20024;-74
2022/05/01 05:39:58;;;;;;;14.00;6.78;;;7.40;90.00;;;;;;5106314;28;20023;-74
2022/05/01 05:42:23;;;;;;;16.80;7.40;;;7.20;90.10;;;;;;5103561;28;20395;-74
2022/05/01 05:44:49;;;;;;;9.68;6.30;;;7.20;90.30;;;;;;5089835;28;20043;-74
2022/05/01 05:47:14;;;;;;;13.45;7.00;;;7.10;90.50;;;;;;5102146;28;20372;-75
2022/05/01 05:49:40;;;;;;;13.70;8.27;;;7.10;90.50;;;;;;5106963;28;20027;-74
2022/05/01 05:52:06;;;;;;;15.75;8.65;;;7.00;90.50;;;;;;5104235;28;20112;-76
2022/05/01 05:54:32;;;;;;;16.25;7.90;;;6.90;90.40;;;;;;5104455;28;20028;-75
2022/05/01 05:56:58;;;;;;;16.20;8.20;;;7.00;90.80;;;;;;5100914;27;20024;-75
2022/05/01 05:59:23;;;;;;;17.85;9.02;;;7.10;91.00;;;;;;5106294;28;20366;-74
2022/05/01 06:01:49;;;;;;;20.48;8.98;;;7.30;91.20;;;;;;5102056;28;20165;-74
2022/05/01 06:04:14;;;;;;;23.05;8.82;;;7.40;91.20;;;;;;5101760;28;20036;-74
2022/05/01 06:06:40;;;;;;;19.63;9.05;;;7.50;91.10;;;;;;5104126;28;20114;-74
2022/05/01 06:09:05;;;;;;;11.38;7.60;;;7.60;91.00;;;;;;5098955;27;20106;-73
2022/05/01 06:11:31;;;;;;;12.88;7.90;;;7.60;90.60;;;;;;5098386;28;20031;-73
2022/05/01 06:13:56;;;;;;;16.02;7.95;;;7.80;90.60;;;;;;5107627;28;20031;-73
2022/05/01 06:16:22;;;;;;;13.35;7.43;;;7.90;90.40;;;;;;5101196;28;20039;-74
2022/05/01 06:18:47;;;;;;;15.80;7.95;;;8.10;90.60;;;;;;5107959;28;20051;-74
2022/05/01 06:21:13;;;;;;;10.95;7.35;;;8.20;90.20;;;;;;5107619;28;20585;-74
2022/05/01 06:23:39;;;;;;;13.20;7.45;;;8.40;90.10;;;;;;5106020;28;20038;-74
2022/05/01 06:26:05;;;;;;;17.25;7.43;;;8.50;89.40;;;;;;5100268;28;20522;-75
2022/05/01 06:28:31;;;;;;;15.98;6.95;;;8.50;89.40;;;;;;5081961;28;20596;-76
2022/05/01 06:30:58;;;;;;;12.02;6.53;;;8.50;89.20;;;;;;5109014;28;20393;-74
2022/05/01 06:33:24;;;;;;;14.55;6.35;;;8.60;88.90;;;;;;5107253;28;20057;-75
2022/05/01 06:35:52;;;;;;;11.32;5.57;;;8.80;89.00;;;;;;5107953;28;20063;-74
2022/05/01 06:38:18;;;;;;;12.88;5.03;;;8.80;88.60;;;;;;5105048;28;20116;-74
2022/05/01 06:40:44;;;;;;;8.57;3.97;;;8.70;88.40;;;;;;5109200;28;20055;-74
2022/05/01 06:43:11;;;;;;;8.52;4.35;;;8.70;88.10;;;;;;5106773;28;20108;-74
2022/05/01 06:45:36;;;;;;;12.00;4.60;;;8.90;88.20;;;;;;5099330;28;20057;-74
2022/05/01 06:48:02;;;;;;;10.23;5.00;;;9.10;87.60;;;;;;5109471;28;20398;-74
2022/05/01 06:50:31;;;;;;;12.27;3.95;;;9.40;87.40;;;;;;5098026;28;20036;-73
2022/05/01 06:52:56;;;;;;;9.63;4.22;;;9.60;85.70;;;;;;5106110;28;20470;-74
2022/05/01 06:55:25;;;;;;;12.45;3.90;;;9.70;84.70;;;;;;5103449;28;20031;-74
2022/05/01 06:57:51;;;;;;;7.38;3.70;;;9.80;83.20;;;;;;5086489;28;20055;-75
2022/05/01 07:00:17;;;;;;;7.90;3.55;;;9.90;83.00;;;;;;5096118;28;20027;-75
2022/05/01 07:02:47;;;;;;;6.55;3.13;;;9.80;82.20;;;;;;5106233;28;20444;-76
2022/05/01 07:05:13;;;;;;;6.63;3.70;;;10.00;82.20;;;;;;5096856;28;20114;-76
2022/05/01 07:07:39;;;;;;;7.22;3.00;;;10.10;81.00;;;;;;5104986;28;20172;-76
2022/05/01 07:10:06;;;;;;;5.68;2.92;;;10.40;80.70;;;;;;5103500;28;20028;-75
2022/05/01 07:12:31;;;;;;;7.38;3.45;;;10.10;78.90;;;;;;5104072;28;20486;-77
2022/05/01 07:14:57;;;;;;;5.97;2.88;;;10.70;79.60;;;;;;5104204;28;20035;-75
2022/05/01 07:17:22;;;;;;;10.40;3.10;;;10.70;78.10;;;;;;5101995;28;20022;-75
2022/05/01 07:19:49;;;;;;;6.22;3.30;;;11.00;78.70;;;;;;5109920;28;20040;-76
2022/05/01 07:22:16;;;;;;;4.95;2.42;;;10.90;75.80;;;;;;5102193;28;20532;-77
2022/05/01 07:24:42;;;;;;;8.00;2.40;;;11.10;77.70;;;;;;5103652;28;20035;-76
2022/05/01 07:27:08;;;;;;;5.40;2.83;;;11.30;75.20;;;;;;5104388;28;20028;-76
2022/05/01 07:29:34;;;;;;;5.72;2.90;;;11.20;73.30;;;;;;5098884;28;20031;-75
2022/05/01 07:31:59;;;;;;;6.40;2.83;;;11.50;73.70;;;;;;5094499;28;20055;-76
2022/05/01 07:34:25;;;;;;;4.60;2.65;;;11.60;73.30;;;;;;5101277;28;20398;-75
2022/05/01 07:36:50;;;;;;;5.30;2.85;;;12.00;73.00;;;;;;5107170;28;20342;-76
2022/05/01 07:39:16;;;;;;;4.03;2.22;;;12.00;71.00;;;;;;5088916;28;20108;-75
2022/05/01 07:41:41;;;;;;;4.55;2.47;;;12.00;70.90;;;;;;5105640;28;20058;-75
2022/05/01 07:44:11;;;;;;;7.80;2.35;;;12.20;70.60;;;;;;5102623;28;20032;-77
2022/05/01 07:46:38;;;;;;;5.10;2.38;;;12.30;68.70;;;;;;5094599;28;20081;-75
2022/05/01 07:49:04;;;;;;;6.65;2.75;;;12.00;69.90;;;;;;5106818;28;20027;-76
2022/05/01 07:51:30;;;;;;;7.28;2.22;;;11.80;71.20;;;;;;5101079;28;20036;-72
2022/05/01 07:53:58;;;;;;;3.85;2.42;;;11.70;71.10;;;;;;5104916;28;20051;-72
2022/05/01 07:56:24;;;;;;;14.07;2.67;;;11.70;69.90;;;;;;5106999;28;20119;-73
2022/05/01 07:58:50;;;;;;;4.32;2.58;;;12.10;69.60;;;;;;5094166;28;20040;-74
2022/05/01 08:01:15;;;;;;;7.63;2.33;;;12.30;67.90;;;;;;5107857;28;20068;-73
2022/05/01 08:06:25;;;;;;;4.30;1.90;;;12.00;70.90;;;;;;5101727;28;20696;-74
2022/05/01 08:08:51;;;;;;;4.05;2.15;;;12.30;69.30;;;;;;5101174;28;20138;-75
2022/05/01 08:11:16;;;;;;;5.20;2.25;;;12.00;67.90;;;;;;5084240;28;21316;-76
2022/05/01 08:13:42;;;;;;;9.77;4.05;;;12.00;69.30;;;;;;5105514;28;20483;-76
2022/05/01 08:16:07;;;;;;;4.38;2.28;;;12.10;68.60;;;;;;5105247;28;20035;-75
2022/05/01 08:21:21;;;;;;;25.42;14.65;;;11.60;68.10;;;;;;5075199;28;20074;-74
2022/05/01 08:23:47;;;;;;;7.07;3.63;;;11.50;68.40;;;;;;5108037;28;20030;-75
2022/05/01 08:26:13;;;;;;;3.85;1.73;;;11.40;68.30;;;;;;5105425;28;20040;-75
2022/05/01 08:28:41;;;;;;;7.18;1.67;;;11.00;68.70;;;;;;5109482;28;20440;-74
2022/05/01 08:31:08;;;;;;;4.53;1.77;;;11.00;68.50;;;;;;5111475;28;20411;-73
2022/05/01 08:33:34;;;;;;;6.70;2.28;;;11.40;68.20;;;;;;5101247;28;20028;-75
2022/05/01 08:36:02;;;;;;;7.00;2.10;;;12.00;65.30;;;;;;5103694;28;20032;-75
2022/05/01 08:38:28;;;;;;;5.88;2.25;;;12.60;63.10;;;;;;5110169;28;20038;-74
2022/05/01 08:40:54;;;;;;;8.32;3.42;;;13.00;63.10;;;;;;5111948;28;20055;-74
2022/05/01 08:43:21;;;;;;;6.57;1.80;;;13.40;61.40;;;;;;5104433;28;20073;-74
2022/05/01 08:45:52;;;;;;;5.45;1.67;;;13.50;60.90;;;;;;5104321;28;20049;-74
2022/05/01 08:48:36;;;;;;;5.45;1.70;;;13.90;61.00;;;;;;5104925;28;20028;-73
2022/05/01 08:51:04;;;;;;;5.78;2.67;;;13.80;57.50;;;;;;5095215;28;20567;-74
2022/05/01 08:53:29;;;;;;;4.82;1.50;;;13.70;57.20;;;;;;5105954;28;20145;-74
2022/05/01 08:55:59;;;;;;;2.50;1.23;;;13.80;54.00;;;;;;5108796;28;20059;-75
2022/05/01 08:58:28;;;;;;;2.03;0.98;;;14.10;54.90;;;;;;5110843;28;20762;-73
2022/05/01 09:00:58;;;;;;;10.38;5.47;;;13.50;52.10;;;;;;5105390;28;20530;-73
2022/05/01 09:03:24;;;;;;;6.30;2.83;;;13.60;54.00;;;;;;5088094;28;20038;-73
2022/05/01 09:05:50;;;;;;;4.57;1.52;;;13.50;56.30;;;;;;5104493;28;20297;-75
2022/05/01 09:08:16;;;;;;;2.28;1.05;;;14.00;55.80;;;;;;5085800;28;20031;-74
2022/05/01 09:10:43;;;;;;;4.97;1.50;;;13.90;51.30;;;;;;5103747;28;20034;-75
2022/05/01 09:13:09;;;;;;;4.63;1.00;;;13.90;53.20;;;;;;5098462;28;20023;-74
2022/05/01 09:15:41;;;;;;;3.88;1.23;;;13.80;55.70;;;;;;5103778;28;20034;-73
2022/05/01 09:18:08;;;;;;;3.38;1.30;;;13.80;54.50;;;;;;5097111;27;20049;-74
2022/05/01 09:20:39;;;;;;;4.75;1.35;;;13.80;55.00;;;;;;5108573;28;20031;-74
2022/05/01 09:23:06;;;;;;;;;;;13.80;53.70;;;;;;5110623;28;20035;-72
2022/05/01 09:25:32;;;;;;;4.57;1.35;;;13.70;55.10;;;;;;5107644;28;19968;-74
2022/05/01 09:28:00;;;;;;;2.10;0.90;;;13.90;56.00;;;;;;5102146;28;20028;-73
2022/05/01 09:30:34;;;;;;;4.57;1.73;;;14.40;54.20;;;;;;5103065;28;20096;-73
2022/05/01 09:33:00;;;;;;;2.40;0.98;;;15.10;52.70;;;;;;5109474;28;20101;-74
2022/05/01 09:35:31;;;;;;;1.77;0.80;;;14.50;47.60;;;;;;5110410;28;20027;-74
2022/05/01 09:38:17;;;;;;;2.22;0.60;;;14.50;44.40;;;;;;5106341;28;20473;-73
2022/05/01 09:40:48;;;;;;;3.92;0.70;;;14.70;48.20;;;;;;5109579;28;20331;-72
2022/05/01 09:43:35;;;;;;;2.95;1.20;;;14.90;47.50;;;;;;5101969;28;20023;-72
2022/05/01 09:46:27;;;;;;;3.60;1.13;;;14.50;49.10;;;;;;5106617;28;20047;-72
2022/05/01 09:49:04;;;;;;;2.40;1.30;;;14.10;48.90;;;;;;5094294;28;20169;-72
2022/05/01 09:51:32;;;;;;;1.05;0.52;;;14.00;47.10;;;;;;5104848;28;20535;-72
2022/05/01 09:53:58;;;;;;;0.95;0.70;;;14.00;48.60;;;;;;5111048;28;20039;-72
2022/05/01 09:56:24;;;;;;;4.78;1.13;;;13.90;47.70;;;;;;5108446;28;20042;-73
2022/05/01 09:59:03;;;;;;;1.48;0.70;;;14.00;49.00;;;;;;5106006;28;20471;-73
2022/05/01 10:01:29;;;;;;;4.75;2.05;;;14.00;47.10;;;;;;5107652;28;20023;-72
2022/05/01 10:03:59;;;;;;;2.45;0.90;;;13.60;48.30;;;;;;5106252;28;20042;-72
2022/05/01 10:06:28;;;;;;;2.83;0.73;;;13.70;48.80;;;;;;5089637;28;20031;-72
2022/05/01 10:08:55;;;;;;;4.60;0.85;;;13.50;49.50;;;;;;5098251;28;20090;-73
2022/05/01 10:11:23;;;;;;;2.20;0.80;;;13.30;48.50;;;;;;5106674;28;20067;-72
2022/05/01 10:13:50;;;;;;;2.33;0.98;;;13.10;47.70;;;;;;5104247;28;20509;-73
2022/05/01 10:16:16;;;;;;;3.03;1.50;;;13.40;49.80;;;;;;5106928;28;20032;-72
2022/05/01 10:18:44;;;;;;;1.38;0.70;;;13.50;48.80;;;;;;5103197;28;20367;-71
2022/05/01 10:21:10;;;;;;;2.17;0.80;;;13.60;49.40;;;;;;5105384;28;20076;-72
2022/05/01 10:23:36;;;;;;;1.63;0.77;;;13.60;49.00;;;;;;5100624;28;20397;-75
2022/05/01 10:26:13;;;;;;;3.28;0.98;;;13.70;46.00;;;;;;5097318;28;20800;-75
2022/05/01 10:28:51;;;;;;;2.35;0.85;;;13.70;47.10;;;;;;5108489;28;20055;-74
2022/05/01 10:34:57;;;;;;;2.20;1.08;;;14.40;46.30;;;;;;5104195;28;20837;-74
2022/05/01 10:37:41;;;;;;;1.83;1.00;;;14.50;47.70;;;;;;5106573;28;20057;-75
2022/05/01 10:40:06;;;;;;;2.05;1.13;;;14.30;44.80;;;;;;5108977;28;20483;-74
2022/05/01 10:42:43;;;;;;;2.78;1.05;;;14.50;44.80;;;;;;5099708;28;20058;-74
2022/05/01 10:45:26;;;;;;;2.78;0.93;;;14.60;46.60;;;;;;5107434;28;20028;-75
2022/05/01 10:47:54;;;;;;;1.33;0.77;;;15.00;45.30;;;;;;5096802;28;20040;-75
2022/05/01 10:50:24;;;;;;;2.75;1.00;;;15.20;46.50;;;;;;5107349;28;20031;-74
2022/05/01 10:53:11;;;;;;;2.03;0.70;;;15.60;45.50;;;;;;5109790;28;20378;-74
2022/05/01 10:55:52;;;;;;;4.88;1.35;;;16.00;46.20;;;;;;5106051;28;20032;-74
2022/05/01 10:58:22;;;;;;;3.60;0.95;;;15.20;42.60;;;;;;5104880;28;20032;-70
2022/05/01 11:00:49;;;;;;;1.60;1.02;;;15.20;43.80;;;;;;5107754;28;20035;-70
2022/05/01 11:03:21;;;;;;;1.80;1.13;;;15.10;43.20;;;;;;5097965;28;20057;-70
2022/05/01 11:05:50;;;;;;;4.80;1.85;;;14.80;43.90;;;;;;5104057;28;20024;-71
2022/05/01 11:08:19;;;;;;;3.42;1.80;;;14.60;43.90;;;;;;5104416;28;20406;-71
2022/05/01 11:10:44;;;;;;;4.68;2.17;;;14.50;44.90;;;;;;5103732;28;20041;-71
2022/05/01 11:13:16;;;;;;;4.55;1.40;;;14.50;44.60;;;;;;5109198;28;20138;-70
2022/05/01 11:15:49;;;;;;;2.35;0.90;;;14.50;46.10;;;;;;5107111;28;20027;-70
2022/05/01 11:18:26;;;;;;;2.30;0.80;;;14.90;48.00;;;;;;5089429;28;20053;-70
2022/05/01 11:20:51;;;;;;;2.63;1.20;;;14.90;44.50;;;;;;5108986;28;20089;-70
2022/05/01 11:23:29;;;;;;;3.15;1.02;;;14.40;45.10;;;;;;5108280;28;20032;-71
2022/05/01 11:26:12;;;;;;;3.75;1.13;;;14.10;45.30;;;;;;5110239;28;20055;-70
2022/05/01 11:29:03;;;;;;;3.08;1.27;;;14.30;46.50;;;;;;5104229;28;20056;-71
2022/05/01 11:31:38;;;;;;;2.30;0.70;;;14.60;45.00;;;;;;5107569;28;20176;-70
2022/05/01 11:34:19;;;;;;;3.58;1.10;;;15.10;45.50;;;;;;5097623;28;20035;-71
2022/05/01 11:36:51;;;;;;;2.03;1.20;;;15.20;43.80;;;;;;5103215;28;20032;-71
2022/05/01 11:39:17;;;;;;;3.45;1.27;;;15.30;43.20;;;;;;5104150;28;20032;-70
2022/05/01 11:41:43;;;;;;;3.10;1.95;;;15.40;42.40;;;;;;5104094;28;20059;-71
2022/05/01 11:44:22;;;;;;;1.50;0.90;;;16.00;41.40;;;;;;5107932;28;20024;-71
2022/05/01 11:46:48;;;;;;;3.17;0.90;;;17.10;39.30;;;;;;5107474;28;20462;-71
2022/05/01 11:49:13;;;;;;;1.95;0.90;;;18.20;37.60;;;;;;5100852;28;20042;-72
2022/05/01 11:51:39;;;;;;;3.10;0.77;;;18.10;37.20;;;;;;5092184;28;20069;-72
2022/05/01 11:54:07;;;;;;;1.98;0.80;;;17.00;38.10;;;;;;5101780;28;20432;-73
2022/05/01 12:02:25;;;;;;;2.30;0.85;;;16.90;38.80;;;;;;5063117;28;20036;-72
2022/05/01 12:04:51;;;;;;;0.90;0.77;;;16.30;38.40;;;;;;5064331;28;20067;-72
2022/05/01 12:07:18;;;;;;;4.75;0.80;;;16.30;38.60;;;;;;5083072;28;20098;-72
2022/05/01 12:09:47;;;;;;;1.95;1.08;;;16.20;40.50;;;;;;5105017;28;20023;-72
2022/05/01 12:12:16;;;;;;;1.83;0.70;;;16.30;39.60;;;;;;5106913;28;20542;-72
2022/05/01 12:14:42;;;;;;;1.10;0.70;;;17.00;39.70;;;;;;5101559;28;20420;-71
2022/05/01 12:17:09;;;;;;;2.97;0.98;;;17.30;38.90;;;;;;5111290;28;20038;-72
2022/05/01 12:19:40;;;;;;;1.42;0.68;;;16.10;39.40;;;;;;5110447;28;20112;-72
2022/05/01 12:22:07;;;;;;;1.27;0.73;;;16.10;39.50;;;;;;5113017;28;20110;-69
2022/05/01 12:24:34;;;;;;;2.40;0.80;;;16.00;39.60;;;;;;5102878;28;20438;-72
2022/05/01 12:27:00;;;;;;;1.63;0.70;;;16.10;38.70;;;;;;5104754;28;20378;-71
2022/05/01 12:29:28;;;;;;;2.50;0.88;;;16.30;38.80;;;;;;5109550;28;20030;-71
2022/05/01 12:32:14;;;;;;;1.42;0.70;;;16.40;39.10;;;;;;5108385;28;20027;-71
2022/05/01 12:34:49;;;;;;;1.13;0.80;;;16.50;38.90;;;;;;5087201;28;20026;-71
2022/05/01 12:37:27;;;;;;;2.78;0.90;;;16.40;39.10;;;;;;5106570;28;20075;-71
2022/05/01 12:40:03;;;;;;;1.20;0.50;;;16.90;39.80;;;;;;5106522;28;20382;-71
2022/05/01 12:45:53;;;;;;;2.75;0.90;;;16.60;39.60;;;;;;5102507;28;20031;-71
2022/05/01 12:48:20;;;;;;;2.88;0.80;;;16.30;39.80;;;;;;5108051;27;20085;-71
2022/05/01 12:50:51;;;;;;;1.10;0.70;;;16.30;39.10;;;;;;5107908;28;20027;-71
2022/05/01 12:53:28;;;;;;;4.72;0.90;;;16.70;41.60;;;;;;5102356;28;20041;-71
2022/05/01 12:55:55;;;;;;;3.17;0.90;;;16.50;40.20;;;;;;5104453;28;20093;-71
2022/05/01 12:58:28;;;;;;;1.20;0.75;;;15.80;40.30;;;;;;5107340;28;20019;-71
2022/05/01 13:00:54;;;;;;;0.68;0.65;;;15.50;40.40;;;;;;5107045;28;20074;-71
2022/05/01 13:03:36;;;;;;;1.73;0.77;;;15.40;40.90;;;;;;5098662;28;20485;-71
2022/05/01 13:06:14;;;;;;;1.98;0.82;;;15.80;41.10;;;;;;5099313;27;20073;-71
2022/05/01 13:08:41;;;;;;;2.28;1.00;;;16.20;39.50;;;;;;5098076;28;20485;-71
2022/05/01 13:11:15;;;;;;;2.58;1.00;;;16.20;40.90;;;;;;5103394;28;20019;-71
2022/05/01 13:13:52;;;;;;;1.83;1.15;;;16.00;40.40;;;;;;5100314;28;20012;-71
2022/05/01 13:16:22;;;;;;;1.75;1.00;;;16.20;40.80;;;;;;5102263;28;20119;-71
2022/05/01 13:18:58;;;;;;;2.53;1.02;;;16.40;40.40;;;;;;5106628;28;20149;-71
2022/05/01 13:21:25;;;;;;;3.60;1.00;;;15.70;41.90;;;;;;5100060;28;20054;-71
2022/05/01 13:23:52;;;;;;;4.05;1.10;;;16.00;43.70;;;;;;5101991;28;20027;-71